sensor_id;sensor_type;location;lat;lon;timestamp;P1;durP1;ratioP1;P2;durP2;ratioP2
59830;SDS011;45711;50.108;13.712;2023-04-24T00:01:17;11.23;;;5.93;;
59830;SDS011;45711;50.108;13.712;2023-04-24T00:03:46;8.45;;;4.40;;
59830;SDS011;45711;50.108;13.712;2023-04-24T00:06:15;6.75;;;4.00;;
59830;SDS011;45711;50.108;13.712;2023-04-24T00:08:45;3.72;;;0.80;;
59830;SDS011;45711;50.108;13.712;2023-04-24T00:11:11;2.40;;;1.13;;
59830;SDS011;45711;50.108;13.712;2023-04-24T00:13:38;9.65;;;5.03;;
59830;SDS011;45711;50.108;13.712;2023-04-24T00:16:06;8.30;;;5.13;;
59830;SDS011;45711;50.108;13.712;2023-04-24T00:18:38;5.78;;;3.45;;
59830;SDS011;45711;50.108;13.712;2023-04-24T00:21:06;8.05;;;3.78;;
59830;SDS011;45711;50.108;13.712;2023-04-24T00:23:34;3.10;;;0.90;;
59830;SDS011;45711;50.108;13.712;2023-04-24T00:25:59;2.15;;;0.85;;
59830;SDS011;45711;50.108;13.712;2023-04-24T00:28:25;2.72;;;1.17;;
59830;SDS011;45711;50.108;13.712;2023-04-24T00:30:53;0.85;;;0.75;;
59830;SDS011;45711;50.108;13.712;2023-04-24T00:33:21;1.88;;;0.80;;
59830;SDS011;45711;50.108;13.712;2023-04-24T00:35:49;1.05;;;0.80;;
59830;SDS011;45711;50.108;13.712;2023-04-24T00:38:17;3.60;;;1.63;;
59830;SDS011;45711;50.108;13.712;2023-04-24T00:40:44;2.75;;;1.02;;
59830;SDS011;45711;50.108;13.712;2023-04-24T00:43:11;1.83;;;1.25;;
59830;SDS011;45711;50.108;13.712;2023-04-24T00:45:40;2.55;;;1.50;;
59830;SDS011;45711;50.108;13.712;2023-04-24T00:48:06;3.17;;;1.55;;
59830;SDS011;45711;50.108;13.712;2023-04-24T00:50:32;3.47;;;2.47;;
59830;SDS011;45711;50.108;13.712;2023-04-24T00:52:58;6.18;;;2.75;;
59830;SDS011;45711;50.108;13.712;2023-04-24T00:55:24;1.90;;;1.10;;
59830;SDS011;45711;50.108;13.712;2023-04-24T00:57:53;2.50;;;1.15;;
59830;SDS011;45711;50.108;13.712;2023-04-24T01:00:21;3.30;;;1.70;;
59830;SDS011;45711;50.108;13.712;2023-04-24T01:02:47;3.08;;;1.98;;
59830;SDS011;45711;50.108;13.712;2023-04-24T01:05:13;4.63;;;1.65;;
59830;SDS011;45711;50.108;13.712;2023-04-24T01:07:47;4.50;;;1.67;;
59830;SDS011;45711;50.108;13.712;2023-04-24T01:10:17;1.88;;;1.15;;
59830;SDS011;45711;50.108;13.712;2023-04-24T01:12:45;5.28;;;1.60;;
59830;SDS011;45711;50.108;13.712;2023-04-24T01:15:12;2.15;;;0.93;;
59830;SDS011;45711;50.108;13.712;2023-04-24T01:17:39;4.45;;;1.00;;
59830;SDS011;45711;50.108;13.712;2023-04-24T01:20:05;5.75;;;1.67;;
59830;SDS011;45711;50.108;13.712;2023-04-24T01:22:33;3.10;;;1.63;;
59830;SDS011;45711;50.108;13.712;2023-04-24T01:25:02;3.47;;;1.30;;
59830;SDS011;45711;50.108;13.712;2023-04-24T01:27:28;7.38;;;1.60;;
59830;SDS011;45711;50.108;13.712;2023-04-24T01:29:57;3.10;;;1.20;;
59830;SDS011;45711;50.108;13.712;2023-04-24T01:32:27;1.75;;;1.20;;
59830;SDS011;45711;50.108;13.712;2023-04-24T01:34:55;2.05;;;1.55;;
59830;SDS011;45711;50.108;13.712;2023-04-24T01:37:23;2.42;;;1.60;;
59830;SDS011;45711;50.108;13.712;2023-04-24T01:39:50;3.03;;;1.60;;
59830;SDS011;45711;50.108;13.712;2023-04-24T01:42:22;1.48;;;1.27;;
59830;SDS011;45711;50.108;13.712;2023-04-24T01:44:48;2.92;;;1.45;;
59830;SDS011;45711;50.108;13.712;2023-04-24T01:47:14;1.98;;;1.20;;
59830;SDS011;45711;50.108;13.712;2023-04-24T01:49:41;2.72;;;1.30;;
59830;SDS011;45711;50.108;13.712;2023-04-24T01:52:06;2.67;;;1.30;;
59830;SDS011;45711;50.108;13.712;2023-04-24T01:54:35;2.15;;;1.67;;
59830;SDS011;45711;50.108;13.712;2023-04-24T01:57:05;4.15;;;1.40;;
59830;SDS011;45711;50.108;13.712;2023-04-24T01:59:33;1.67;;;1.20;;
59830;SDS011;45711;50.108;13.712;2023-04-24T02:02:01;2.05;;;1.50;;
59830;SDS011;45711;50.108;13.712;2023-04-24T02:04:27;2.65;;;1.20;;
59830;SDS011;45711;50.108;13.712;2023-04-24T02:07:00;3.45;;;1.65;;
59830;SDS011;45711;50.108;13.712;2023-04-24T02:09:26;4.47;;;2.08;;
59830;SDS011;45711;50.108;13.712;2023-04-24T02:11:52;2.13;;;1.40;;
59830;SDS011;45711;50.108;13.712;2023-04-24T02:14:19;2.80;;;1.67;;
59830;SDS011;45711;50.108;13.712;2023-04-24T02:16:47;2.17;;;1.23;;
59830;SDS011;45711;50.108;13.712;2023-04-24T02:19:24;1.85;;;1.30;;
59830;SDS011;45711;50.108;13.712;2023-04-24T02:21:51;2.65;;;1.40;;
59830;SDS011;45711;50.108;13.712;2023-04-24T02:24:17;2.03;;;1.42;;
59830;SDS011;45711;50.108;13.712;2023-04-24T02:26:43;1.92;;;1.20;;
59830;SDS011;45711;50.108;13.712;2023-04-24T02:29:09;2.42;;;1.45;;
59830;SDS011;45711;50.108;13.712;2023-04-24T02:31:39;2.85;;;1.55;;
59830;SDS011;45711;50.108;13.712;2023-04-24T02:34:07;1.88;;;1.20;;
59830;SDS011;45711;50.108;13.712;2023-04-24T02:36:33;1.90;;;1.38;;
59830;SDS011;45711;50.108;13.712;2023-04-24T02:38:58;3.22;;;1.55;;
59830;SDS011;45711;50.108;13.712;2023-04-24T02:41:26;3.72;;;1.60;;
59830;SDS011;45711;50.108;13.712;2023-04-24T02:43:56;1.55;;;1.45;;
59830;SDS011;45711;50.108;13.712;2023-04-24T02:46:36;2.67;;;1.63;;
59830;SDS011;45711;50.108;13.712;2023-04-24T02:49:06;2.65;;;1.70;;
59830;SDS011;45711;50.108;13.712;2023-04-24T02:51:34;4.07;;;1.50;;
59830;SDS011;45711;50.108;13.712;2023-04-24T02:53:59;2.78;;;1.42;;
59830;SDS011;45711;50.108;13.712;2023-04-24T02:56:27;1.77;;;1.45;;
59830;SDS011;45711;50.108;13.712;2023-04-24T02:58:56;1.88;;;1.55;;
59830;SDS011;45711;50.108;13.712;2023-04-24T03:01:24;2.58;;;1.50;;
59830;SDS011;45711;50.108;13.712;2023-04-24T03:03:51;1.45;;;1.27;;
59830;SDS011;45711;50.108;13.712;2023-04-24T03:06:17;2.08;;;1.27;;
59830;SDS011;45711;50.108;13.712;2023-04-24T03:08:48;1.58;;;1.40;;
59830;SDS011;45711;50.108;13.712;2023-04-24T03:11:14;2.70;;;1.38;;
59830;SDS011;45711;50.108;13.712;2023-04-24T03:13:41;4.32;;;1.23;;
59830;SDS011;45711;50.108;13.712;2023-04-24T03:16:10;3.70;;;1.30;;
59830;SDS011;45711;50.108;13.712;2023-04-24T03:18:47;1.90;;;1.70;;
59830;SDS011;45711;50.108;13.712;2023-04-24T03:21:16;3.60;;;1.50;;
59830;SDS011;45711;50.108;13.712;2023-04-24T03:23:48;2.55;;;1.88;;
59830;SDS011;45711;50.108;13.712;2023-04-24T03:26:51;3.78;;;2.13;;
59830;SDS011;45711;50.108;13.712;2023-04-24T03:29:20;7.00;;;2.10;;
59830;SDS011;45711;50.108;13.712;2023-04-24T03:31:49;3.58;;;2.13;;
59830;SDS011;45711;50.108;13.712;2023-04-24T03:34:17;4.10;;;2.10;;
59830;SDS011;45711;50.108;13.712;2023-04-24T03:36:46;6.10;;;1.75;;
59830;SDS011;45711;50.108;13.712;2023-04-24T03:39:17;3.90;;;2.22;;
59830;SDS011;45711;50.108;13.712;2023-04-24T03:41:49;3.25;;;2.10;;
59830;SDS011;45711;50.108;13.712;2023-04-24T03:44:17;3.63;;;2.08;;
59830;SDS011;45711;50.108;13.712;2023-04-24T03:46:47;4.20;;;1.95;;
59830;SDS011;45711;50.108;13.712;2023-04-24T03:49:23;3.30;;;2.42;;
59830;SDS011;45711;50.108;13.712;2023-04-24T03:52:00;5.03;;;2.10;;
59830;SDS011;45711;50.108;13.712;2023-04-24T03:54:29;3.53;;;2.10;;
59830;SDS011;45711;50.108;13.712;2023-04-24T03:56:59;5.40;;;2.17;;
59830;SDS011;45711;50.108;13.712;2023-04-24T03:59:29;4.07;;;1.77;;
59830;SDS011;45711;50.108;13.712;2023-04-24T04:02:01;4.03;;;1.83;;
59830;SDS011;45711;50.108;13.712;2023-04-24T04:04:32;4.65;;;2.28;;
59830;SDS011;45711;50.108;13.712;2023-04-24T04:07:01;2.30;;;1.77;;
59830;SDS011;45711;50.108;13.712;2023-04-24T04:09:28;4.20;;;2.20;;
59830;SDS011;45711;50.108;13.712;2023-04-24T04:11:59;2.28;;;1.70;;
59830;SDS011;45711;50.108;13.712;2023-04-24T04:14:36;2.53;;;2.00;;
59830;SDS011;45711;50.108;13.712;2023-04-24T04:17:02;4.10;;;2.20;;
59830;SDS011;45711;50.108;13.712;2023-04-24T04:19:28;3.08;;;2.15;;
59830;SDS011;45711;50.108;13.712;2023-04-24T04:22:05;4.55;;;2.00;;
59830;SDS011;45711;50.108;13.712;2023-04-24T04:24:36;2.95;;;1.80;;
59830;SDS011;45711;50.108;13.712;2023-04-24T04:27:07;3.70;;;1.98;;
59830;SDS011;45711;50.108;13.712;2023-04-24T04:29:39;3.75;;;2.20;;
59830;SDS011;45711;50.108;13.712;2023-04-24T04:32:09;3.03;;;2.08;;
59830;SDS011;45711;50.108;13.712;2023-04-24T04:34:38;2.53;;;1.67;;
59830;SDS011;45711;50.108;13.712;2023-04-24T04:37:13;5.40;;;2.00;;
59830;SDS011;45711;50.108;13.712;2023-04-24T04:39:43;4.55;;;2.33;;
59830;SDS011;45711;50.108;13.712;2023-04-24T04:42:19;4.45;;;1.90;;
59830;SDS011;45711;50.108;13.712;2023-04-24T04:44:48;5.00;;;1.58;;
59830;SDS011;45711;50.108;13.712;2023-04-24T04:47:24;2.15;;;1.40;;
59830;SDS011;45711;50.108;13.712;2023-04-24T04:50:15;1.95;;;1.33;;
59830;SDS011;45711;50.108;13.712;2023-04-24T04:52:51;1.83;;;1.08;;
59830;SDS011;45711;50.108;13.712;2023-04-24T04:55:30;1.88;;;1.30;;
59830;SDS011;45711;50.108;13.712;2023-04-24T04:58:00;1.58;;;1.20;;
59830;SDS011;45711;50.108;13.712;2023-04-24T05:00:45;2.35;;;1.45;;
59830;SDS011;45711;50.108;13.712;2023-04-24T05:03:34;2.80;;;1.35;;
59830;SDS011;45711;50.108;13.712;2023-04-24T05:06:16;2.53;;;1.10;;
59830;SDS011;45711;50.108;13.712;2023-04-24T05:09:17;3.25;;;1.45;;
59830;SDS011;45711;50.108;13.712;2023-04-24T05:11:50;3.03;;;1.20;;
59830;SDS011;45711;50.108;13.712;2023-04-24T05:14:47;2.60;;;1.25;;
59830;SDS011;45711;50.108;13.712;2023-04-24T05:17:53;2.60;;;1.60;;
59830;SDS011;45711;50.108;13.712;2023-04-24T05:20:27;1.70;;;1.27;;
59830;SDS011;45711;50.108;13.712;2023-04-24T05:23:03;3.80;;;1.30;;
59830;SDS011;45711;50.108;13.712;2023-04-24T05:28:14;1.92;;;1.45;;
59830;SDS011;45711;50.108;13.712;2023-04-24T05:30:50;2.40;;;1.10;;
59830;SDS011;45711;50.108;13.712;2023-04-24T05:33:18;2.92;;;1.38;;
59830;SDS011;45711;50.108;13.712;2023-04-24T05:35:58;5.28;;;1.40;;
59830;SDS011;45711;50.108;13.712;2023-04-24T05:38:26;2.97;;;1.33;;
59830;SDS011;45711;50.108;13.712;2023-04-24T05:41:07;1.75;;;1.30;;
59830;SDS011;45711;50.108;13.712;2023-04-24T05:44:05;3.28;;;1.58;;
59830;SDS011;45711;50.108;13.712;2023-04-24T05:47:07;4.22;;;1.90;;
59830;SDS011;45711;50.108;13.712;2023-04-24T05:50:06;8.57;;;1.70;;
59830;SDS011;45711;50.108;13.712;2023-04-24T05:52:54;4.80;;;1.60;;
59830;SDS011;45711;50.108;13.712;2023-04-24T05:55:36;3.03;;;1.30;;
59830;SDS011;45711;50.108;13.712;2023-04-24T05:58:03;4.15;;;1.40;;
59830;SDS011;45711;50.108;13.712;2023-04-24T06:00:40;2.97;;;1.42;;
59830;SDS011;45711;50.108;13.712;2023-04-24T06:03:16;5.50;;;1.45;;
59830;SDS011;45711;50.108;13.712;2023-04-24T06:06:03;7.85;;;1.80;;
59830;SDS011;45711;50.108;13.712;2023-04-24T06:08:50;3.03;;;1.67;;
59830;SDS011;45711;50.108;13.712;2023-04-24T06:11:19;2.15;;;1.40;;
59830;SDS011;45711;50.108;13.712;2023-04-24T06:13:53;1.95;;;1.30;;
59830;SDS011;45711;50.108;13.712;2023-04-24T06:16:35;3.70;;;1.77;;
59830;SDS011;45711;50.108;13.712;2023-04-24T06:19:01;3.35;;;1.40;;
59830;SDS011;45711;50.108;13.712;2023-04-24T06:21:32;2.58;;;1.42;;
59830;SDS011;45711;50.108;13.712;2023-04-24T06:24:15;9.20;;;2.20;;
59830;SDS011;45711;50.108;13.712;2023-04-24T06:26:41;6.38;;;2.05;;
59830;SDS011;45711;50.108;13.712;2023-04-24T06:29:19;1.98;;;1.25;;
59830;SDS011;45711;50.108;13.712;2023-04-24T06:32:05;5.22;;;2.13;;
59830;SDS011;45711;50.108;13.712;2023-04-24T06:34:30;10.27;;;2.70;;
59830;SDS011;45711;50.108;13.712;2023-04-24T06:37:01;7.70;;;2.72;;
59830;SDS011;45711;50.108;13.712;2023-04-24T06:39:27;3.97;;;2.67;;
59830;SDS011;45711;50.108;13.712;2023-04-24T06:42:01;6.63;;;2.67;;
59830;SDS011;45711;50.108;13.712;2023-04-24T06:44:53;6.78;;;2.40;;
59830;SDS011;45711;50.108;13.712;2023-04-24T06:47:29;2.90;;;2.05;;
59830;SDS011;45711;50.108;13.712;2023-04-24T06:49:58;7.05;;;2.70;;
59830;SDS011;45711;50.108;13.712;2023-04-24T06:52:29;6.75;;;2.80;;
59830;SDS011;45711;50.108;13.712;2023-04-24T06:55:01;6.05;;;2.90;;
59830;SDS011;45711;50.108;13.712;2023-04-24T06:57:31;8.50;;;2.40;;
59830;SDS011;45711;50.108;13.712;2023-04-24T06:59:58;8.43;;;2.88;;
59830;SDS011;45711;50.108;13.712;2023-04-24T07:55:32;2.78;;;1.92;;
59830;SDS011;45711;50.108;13.712;2023-04-24T07:58:45;4.00;;;3.00;;
59830;SDS011;45711;50.108;13.712;2023-04-24T11:38:00;2.22;;;1.00;;
59830;SDS011;45711;50.108;13.712;2023-04-24T11:40:48;3.58;;;1.30;;
59830;SDS011;45711;50.108;13.712;2023-04-24T11:43:32;2.65;;;0.73;;
59830;SDS011;45711;50.108;13.712;2023-04-24T11:46:00;1.60;;;0.98;;
59830;SDS011;45711;50.108;13.712;2023-04-24T11:48:27;1.77;;;0.93;;
59830;SDS011;45711;50.108;13.712;2023-04-24T11:50:55;1.10;;;0.80;;
59830;SDS011;45711;50.108;13.712;2023-04-24T11:53:24;1.50;;;0.90;;
59830;SDS011;45711;50.108;13.712;2023-04-24T11:55:49;2.25;;;1.02;;
59830;SDS011;45711;50.108;13.712;2023-04-24T11:58:17;1.67;;;0.80;;
59830;SDS011;45711;50.108;13.712;2023-04-24T12:00:53;2.13;;;1.20;;
59830;SDS011;45711;50.108;13.712;2023-04-24T12:03:26;2.30;;;0.77;;
59830;SDS011;45711;50.108;13.712;2023-04-24T12:06:04;0.70;;;0.70;;
59830;SDS011;45711;50.108;13.712;2023-04-24T12:08:40;1.05;;;0.93;;
59830;SDS011;45711;50.108;13.712;2023-04-24T12:11:07;1.33;;;0.90;;
59830;SDS011;45711;50.108;13.712;2023-04-24T12:13:51;1.05;;;0.77;;
59830;SDS011;45711;50.108;13.712;2023-04-24T12:16:20;13.57;;;0.85;;
59830;SDS011;45711;50.108;13.712;2023-04-24T12:18:45;7.28;;;0.80;;
59830;SDS011;45711;50.108;13.712;2023-04-24T12:21:17;2.42;;;0.85;;
59830;SDS011;45711;50.108;13.712;2023-04-24T12:23:48;0.80;;;0.77;;
59830;SDS011;45711;50.108;13.712;2023-04-24T12:26:19;1.75;;;0.75;;
59830;SDS011;45711;50.108;13.712;2023-04-24T12:35:54;1.20;;;0.70;;
59830;SDS011;45711;50.108;13.712;2023-04-24T12:38:28;3.60;;;0.80;;
59830;SDS011;45711;50.108;13.712;2023-04-24T12:41:08;1.45;;;0.90;;
59830;SDS011;45711;50.108;13.712;2023-04-24T12:47:07;1.55;;;0.80;;
59830;SDS011;45711;50.108;13.712;2023-04-24T12:49:38;0.80;;;0.60;;
59830;SDS011;45711;50.108;13.712;2023-04-24T12:52:36;4.82;;;0.70;;
59830;SDS011;45711;50.108;13.712;2023-04-24T12:55:29;1.60;;;0.60;;
59830;SDS011;45711;50.108;13.712;2023-04-24T12:58:01;2.83;;;0.80;;
59830;SDS011;45711;50.108;13.712;2023-04-24T13:00:28;3.03;;;0.70;;
59830;SDS011;45711;50.108;13.712;2023-04-24T13:03:00;1.58;;;0.90;;
59830;SDS011;45711;50.108;13.712;2023-04-24T13:05:31;1.73;;;0.80;;
59830;SDS011;45711;50.108;13.712;2023-04-24T13:08:02;0.80;;;0.77;;
59830;SDS011;45711;50.108;13.712;2023-04-24T13:10:28;1.23;;;0.57;;
59830;SDS011;45711;50.108;13.712;2023-04-24T13:13:01;0.88;;;0.70;;
59830;SDS011;45711;50.108;13.712;2023-04-24T13:15:30;6.22;;;1.15;;
59830;SDS011;45711;50.108;13.712;2023-04-24T13:18:05;5.88;;;1.10;;
59830;SDS011;45711;50.108;13.712;2023-04-24T13:20:33;2.65;;;0.80;;
59830;SDS011;45711;50.108;13.712;2023-04-24T13:23:15;0.90;;;0.75;;
59830;SDS011;45711;50.108;13.712;2023-04-24T13:25:48;2.47;;;0.95;;
59830;SDS011;45711;50.108;13.712;2023-04-24T13:28:43;1.55;;;0.80;;
59830;SDS011;45711;50.108;13.712;2023-04-24T13:31:18;7.13;;;1.10;;
59830;SDS011;45711;50.108;13.712;2023-04-24T13:34:01;2.53;;;0.90;;
59830;SDS011;45711;50.108;13.712;2023-04-24T13:36:57;3.97;;;1.10;;
59830;SDS011;45711;50.108;13.712;2023-04-24T13:40:20;1.83;;;0.95;;
59830;SDS011;45711;50.108;13.712;2023-04-24T13:43:30;3.13;;;0.90;;
59830;SDS011;45711;50.108;13.712;2023-04-24T14:02:00;1.25;;;0.80;;
59830;SDS011;45711;50.108;13.712;2023-04-24T14:04:37;4.50;;;0.82;;
59830;SDS011;45711;50.108;13.712;2023-04-24T14:07:05;0.90;;;0.80;;
59830;SDS011;45711;50.108;13.712;2023-04-24T14:16:41;2.97;;;0.85;;
59830;SDS011;45711;50.108;13.712;2023-04-24T14:19:11;1.45;;;0.73;;
59830;SDS011;45711;50.108;13.712;2023-04-24T14:21:40;2.80;;;0.85;;
59830;SDS011;45711;50.108;13.712;2023-04-24T14:24:18;2.00;;;0.70;;
59830;SDS011;45711;50.108;13.712;2023-04-24T14:26:54;1.10;;;0.88;;
59830;SDS011;45711;50.108;13.712;2023-04-24T14:29:33;1.38;;;0.80;;
59830;SDS011;45711;50.108;13.712;2023-04-24T14:32:00;0.73;;;0.73;;
59830;SDS011;45711;50.108;13.712;2023-04-24T14:34:26;3.08;;;0.80;;
59830;SDS011;45711;50.108;13.712;2023-04-24T14:37:22;1.40;;;1.00;;
59830;SDS011;45711;50.108;13.712;2023-04-24T14:39:53;1.70;;;1.00;;
59830;SDS011;45711;50.108;13.712;2023-04-24T14:42:27;1.25;;;0.73;;
59830;SDS011;45711;50.108;13.712;2023-04-24T14:44:55;4.60;;;0.90;;
59830;SDS011;45711;50.108;13.712;2023-04-24T14:47:46;1.95;;;0.80;;
59830;SDS011;45711;50.108;13.712;2023-04-24T14:50:19;2.55;;;0.70;;
59830;SDS011;45711;50.108;13.712;2023-04-24T14:52:56;0.80;;;0.70;;
59830;SDS011;45711;50.108;13.712;2023-04-24T14:55:29;1.65;;;1.00;;
59830;SDS011;45711;50.108;13.712;2023-04-24T14:58:00;1.55;;;0.90;;
59830;SDS011;45711;50.108;13.712;2023-04-24T15:00:34;1.20;;;0.80;;
59830;SDS011;45711;50.108;13.712;2023-04-24T15:05:54;2.40;;;0.77;;
59830;SDS011;45711;50.108;13.712;2023-04-24T15:08:36;4.78;;;0.93;;
59830;SDS011;45711;50.108;13.712;2023-04-24T15:11:09;3.42;;;0.90;;
59830;SDS011;45711;50.108;13.712;2023-04-24T15:13:35;2.30;;;0.85;;
59830;SDS011;45711;50.108;13.712;2023-04-24T15:16:00;1.40;;;0.93;;
59830;SDS011;45711;50.108;13.712;2023-04-24T15:18:29;0.82;;;0.60;;
59830;SDS011;45711;50.108;13.712;2023-04-24T15:20:55;4.30;;;1.17;;
59830;SDS011;45711;50.108;13.712;2023-04-24T15:23:21;1.00;;;0.70;;
59830;SDS011;45711;50.108;13.712;2023-04-24T15:25:47;1.45;;;0.77;;
59830;SDS011;45711;50.108;13.712;2023-04-24T15:28:13;0.93;;;0.68;;
59830;SDS011;45711;50.108;13.712;2023-04-24T15:30:41;2.95;;;0.90;;
59830;SDS011;45711;50.108;13.712;2023-04-24T15:43:53;1.15;;;0.80;;
59830;SDS011;45711;50.108;13.712;2023-04-24T15:50:06;2.08;;;0.65;;
59830;SDS011;45711;50.108;13.712;2023-04-24T15:52:55;0.80;;;0.70;;
59830;SDS011;45711;50.108;13.712;2023-04-24T15:55:21;1.58;;;0.93;;
59830;SDS011;45711;50.108;13.712;2023-04-24T15:57:48;4.50;;;0.90;;
59830;SDS011;45711;50.108;13.712;2023-04-24T16:00:14;0.90;;;0.60;;
59830;SDS011;45711;50.108;13.712;2023-04-24T16:02:43;2.03;;;0.65;;
59830;SDS011;45711;50.108;13.712;2023-04-24T16:05:21;0.95;;;0.85;;
59830;SDS011;45711;50.108;13.712;2023-04-24T16:09:33;1.23;;;0.80;;
59830;SDS011;45711;50.108;13.712;2023-04-24T16:11:17;3.58;;;0.60;;
59830;SDS011;45711;50.108;13.712;2023-04-24T20:31:30;1.00;;;0.90;;
59830;SDS011;45711;50.108;13.712;2023-04-24T20:33:55;0.95;;;0.80;;
59830;SDS011;45711;50.108;13.712;2023-04-24T20:36:21;1.00;;;0.90;;
59830;SDS011;45711;50.108;13.712;2023-04-24T20:38:55;0.98;;;0.80;;
59830;SDS011;45711;50.108;13.712;2023-04-24T20:41:24;1.83;;;0.95;;
59830;SDS011;45711;50.108;13.712;2023-04-24T20:43:58;1.17;;;0.95;;
59830;SDS011;45711;50.108;13.712;2023-04-24T20:46:30;2.35;;;1.10;;
59830;SDS011;45711;50.108;13.712;2023-04-24T20:48:56;4.13;;;1.00;;
59830;SDS011;45711;50.108;13.712;2023-04-24T20:51:22;2.22;;;1.00;;
59830;SDS011;45711;50.108;13.712;2023-04-24T20:53:52;1.48;;;1.00;;
59830;SDS011;45711;50.108;13.712;2023-04-24T20:56:18;1.73;;;1.20;;
59830;SDS011;45711;50.108;13.712;2023-04-24T20:58:50;1.77;;;1.10;;
59830;SDS011;45711;50.108;13.712;2023-04-24T21:01:16;1.88;;;1.20;;
59830;SDS011;45711;50.108;13.712;2023-04-24T21:03:50;1.50;;;1.30;;
59830;SDS011;45711;50.108;13.712;2023-04-24T21:06:16;2.53;;;1.48;;
59830;SDS011;45711;50.108;13.712;2023-04-24T21:08:42;1.70;;;1.20;;
59830;SDS011;45711;50.108;13.712;2023-04-24T21:11:11;1.65;;;1.15;;
59830;SDS011;45711;50.108;13.712;2023-04-24T21:13:36;1.60;;;1.20;;
59830;SDS011;45711;50.108;13.712;2023-04-24T21:16:05;1.80;;;1.30;;
59830;SDS011;45711;50.108;13.712;2023-04-24T21:18:34;3.50;;;1.63;;
59830;SDS011;45711;50.108;13.712;2023-04-24T21:21:06;5.70;;;1.67;;
59830;SDS011;45711;50.108;13.712;2023-04-24T21:23:34;2.47;;;1.40;;
59830;SDS011;45711;50.108;13.712;2023-04-24T21:26:06;1.20;;;0.90;;
59830;SDS011;45711;50.108;13.712;2023-04-24T21:28:40;1.55;;;0.93;;
59830;SDS011;45711;50.108;13.712;2023-04-24T21:31:06;2.47;;;1.70;;
59830;SDS011;45711;50.108;13.712;2023-04-24T21:33:32;2.25;;;1.40;;
59830;SDS011;45711;50.108;13.712;2023-04-24T21:36:01;2.65;;;1.55;;
59830;SDS011;45711;50.108;13.712;2023-04-24T21:38:28;2.67;;;1.83;;
59830;SDS011;45711;50.108;13.712;2023-04-24T21:40:54;3.83;;;2.35;;
59830;SDS011;45711;50.108;13.712;2023-04-24T21:43:25;2.90;;;1.50;;
59830;SDS011;45711;50.108;13.712;2023-04-24T21:45:51;2.58;;;1.27;;
59830;SDS011;45711;50.108;13.712;2023-04-24T21:48:16;3.70;;;1.80;;
59830;SDS011;45711;50.108;13.712;2023-04-24T21:50:47;4.60;;;1.83;;
59830;SDS011;45711;50.108;13.712;2023-04-24T21:53:13;3.38;;;1.80;;
59830;SDS011;45711;50.108;13.712;2023-04-24T21:55:43;3.33;;;1.48;;
59830;SDS011;45711;50.108;13.712;2023-04-24T21:58:09;1.85;;;1.33;;
59830;SDS011;45711;50.108;13.712;2023-04-24T22:00:45;1.52;;;1.40;;
59830;SDS011;45711;50.108;13.712;2023-04-24T22:03:13;6.78;;;2.30;;
59830;SDS011;45711;50.108;13.712;2023-04-24T22:05:40;3.00;;;1.80;;
59830;SDS011;45711;50.108;13.712;2023-04-24T22:08:06;4.95;;;2.20;;
59830;SDS011;45711;50.108;13.712;2023-04-24T22:10:35;3.60;;;2.20;;
59830;SDS011;45711;50.108;13.712;2023-04-24T22:13:03;3.15;;;1.90;;
59830;SDS011;45711;50.108;13.712;2023-04-24T22:15:29;3.03;;;1.70;;
59830;SDS011;45711;50.108;13.712;2023-04-24T22:17:55;4.07;;;1.60;;
59830;SDS011;45711;50.108;13.712;2023-04-24T22:20:21;3.15;;;2.13;;
59830;SDS011;45711;50.108;13.712;2023-04-24T22:22:50;3.38;;;1.95;;
59830;SDS011;45711;50.108;13.712;2023-04-24T22:25:16;3.55;;;2.53;;
59830;SDS011;45711;50.108;13.712;2023-04-24T22:27:42;4.82;;;2.30;;
59830;SDS011;45711;50.108;13.712;2023-04-24T22:30:10;7.15;;;2.38;;
59830;SDS011;45711;50.108;13.712;2023-04-24T22:32:37;2.45;;;1.80;;
59830;SDS011;45711;50.108;13.712;2023-04-24T22:35:06;3.38;;;1.90;;
59830;SDS011;45711;50.108;13.712;2023-04-24T22:37:32;2.65;;;1.90;;
59830;SDS011;45711;50.108;13.712;2023-04-24T22:39:58;8.18;;;2.00;;
59830;SDS011;45711;50.108;13.712;2023-04-24T22:42:25;2.92;;;2.08;;
59830;SDS011;45711;50.108;13.712;2023-04-24T22:44:51;2.83;;;2.10;;
59830;SDS011;45711;50.108;13.712;2023-04-24T22:47:21;4.70;;;2.88;;
59830;SDS011;45711;50.108;13.712;2023-04-24T22:49:46;3.85;;;2.60;;
59830;SDS011;45711;50.108;13.712;2023-04-24T22:52:12;5.60;;;2.55;;
59830;SDS011;45711;50.108;13.712;2023-04-24T22:54:38;6.47;;;2.45;;
59830;SDS011;45711;50.108;13.712;2023-04-24T22:57:06;4.88;;;2.80;;
59830;SDS011;45711;50.108;13.712;2023-04-24T22:59:32;5.28;;;2.70;;
59830;SDS011;45711;50.108;13.712;2023-04-24T23:01:58;5.40;;;2.78;;
59830;SDS011;45711;50.108;13.712;2023-04-24T23:04:25;3.00;;;2.17;;
59830;SDS011;45711;50.108;13.712;2023-04-24T23:06:50;4.13;;;2.50;;
59830;SDS011;45711;50.108;13.712;2023-04-24T23:09:16;4.22;;;2.30;;
59830;SDS011;45711;50.108;13.712;2023-04-24T23:11:42;5.45;;;2.42;;
59830;SDS011;45711;50.108;13.712;2023-04-24T23:14:07;3.83;;;2.20;;
59830;SDS011;45711;50.108;13.712;2023-04-24T23:16:35;3.85;;;2.20;;
59830;SDS011;45711;50.108;13.712;2023-04-24T23:19:03;2.83;;;2.50;;
59830;SDS011;45711;50.108;13.712;2023-04-24T23:21:30;3.97;;;2.33;;
59830;SDS011;45711;50.108;13.712;2023-04-24T23:23:57;5.85;;;2.30;;
59830;SDS011;45711;50.108;13.712;2023-04-24T23:26:23;5.25;;;2.65;;
59830;SDS011;45711;50.108;13.712;2023-04-24T23:28:48;4.35;;;2.40;;
59830;SDS011;45711;50.108;13.712;2023-04-24T23:31:14;3.63;;;2.35;;
59830;SDS011;45711;50.108;13.712;2023-04-24T23:33:40;6.22;;;2.63;;
59830;SDS011;45711;50.108;13.712;2023-04-24T23:36:06;4.93;;;2.50;;
59830;SDS011;45711;50.108;13.712;2023-04-24T23:38:33;4.13;;;2.72;;
59830;SDS011;45711;50.108;13.712;2023-04-24T23:40:59;5.03;;;2.85;;
59830;SDS011;45711;50.108;13.712;2023-04-24T23:43:25;5.13;;;2.47;;
59830;SDS011;45711;50.108;13.712;2023-04-24T23:45:51;4.38;;;2.55;;
59830;SDS011;45711;50.108;13.712;2023-04-24T23:48:16;3.67;;;2.47;;
59830;SDS011;45711;50.108;13.712;2023-04-24T23:50:42;3.83;;;2.60;;
59830;SDS011;45711;50.108;13.712;2023-04-24T23:53:08;6.15;;;3.15;;
59830;SDS011;45711;50.108;13.712;2023-04-24T23:55:35;10.40;;;2.85;;
59830;SDS011;45711;50.108;13.712;2023-04-24T23:58:01;4.45;;;2.60;;
